Time;durP1;ratioP1;P1;durP2;ratioP2;P2;SDS_P1;SDS_P2;PMS_P1;PMS_P2;Temp;Humidity;BMP_temperature;BMP_pressure;BME280_temperature;BME280_humidity;BME280_pressure;Samples;Min_cycle;Max_cycle;Signal;HPM_P1;HPM_P2
2021/04/08 00:00:09;;;;;;;7.93;2.10;;;;;;;2.71;82.42;100480.56;3558952;40;20082;-43
2021/04/08 00:02:45;;;;;;;9.82;1.92;;;;;;;2.87;81.92;100493.25;3561561;40;20057;-43
2021/04/08 00:05:14;;;;;;;7.30;2.05;;;;;;;2.99;81.36;100490.47;3561053;40;20047;-43
2021/04/08 00:07:41;;;;;;;9.73;2.63;;;;;;;2.75;81.36;100490.06;3561039;40;20072;-45
2021/04/08 00:10:09;;;;;;;9.25;1.90;;;;;;;2.71;81.83;100496.59;3558745;40;20057;-44
2021/04/08 00:12:37;;;;;;;10.52;1.92;;;;;;;2.67;82.47;100497.22;3561945;40;20041;-43
2021/04/08 00:15:06;;;;;;;10.05;2.33;;;;;;;2.80;82.61;100494.56;3564686;40;20078;-44
2021/04/08 00:17:32;;;;;;;6.15;1.85;;;;;;;2.85;82.38;100506.59;3564721;40;20105;-45
2021/04/08 00:19:59;;;;;;;12.48;2.22;;;;;;;2.95;81.18;100503.75;3561233;40;20053;-44
2021/04/08 00:22:26;;;;;;;7.18;2.28;;;;;;;2.95;81.26;100504.63;3562273;40;20093;-43
2021/04/08 00:24:52;;;;;;;5.32;2.05;;;;;;;2.98;80.69;100507.31;3560823;40;20053;-43
2021/04/08 00:27:19;;;;;;;7.53;2.17;;;;;;;3.01;81.55;100509.16;3561982;40;20054;-46
2021/04/08 00:29:45;;;;;;;6.90;2.33;;;;;;;3.05;80.79;100508.50;3560851;40;20065;-45
2021/04/08 00:32:12;;;;;;;8.30;2.67;;;;;;;3.01;80.85;100510.00;3561544;40;20330;-45
2021/04/08 00:34:38;;;;;;;7.22;2.13;;;;;;;3.10;80.78;100511.25;3561142;40;20065;-47
2021/04/08 00:37:05;;;;;;;10.48;2.65;;;;;;;3.11;79.60;100508.84;3561741;40;20300;-43
2021/04/08 00:39:31;;;;;;;5.82;2.10;;;;;;;2.98;79.73;100506.44;3561479;40;20386;-44
2021/04/08 00:41:58;;;;;;;10.43;2.35;;;;;;;3.04;79.41;100511.81;3560777;40;20167;-45
2021/04/08 00:44:24;;;;;;;7.97;2.38;;;;;;;2.91;80.35;100517.91;3561694;40;20057;-45
2021/04/08 00:46:51;;;;;;;5.78;2.00;;;;;;;2.80;79.57;100521.50;3560726;40;20069;-44
2021/04/08 00:49:18;;;;;;;8.32;2.58;;;;;;;2.85;80.61;100529.34;3561169;40;20061;-45
2021/04/08 00:51:44;;;;;;;8.20;1.90;;;;;;;2.84;80.45;100525.94;3560566;40;20077;-43
2021/04/08 00:54:11;;;;;;;11.50;2.28;;;;;;;2.96;80.31;100538.38;3561182;40;20049;-46
2021/04/08 00:56:38;;;;;;;14.70;3.67;;;;;;;3.04;79.12;100525.34;3561228;40;20076;-43
2021/04/08 00:59:05;;;;;;;5.13;2.00;;;;;;;3.02;79.43;100542.09;3561025;40;20493;-45
2021/04/08 01:01:32;;;;;;;8.30;2.15;;;;;;;2.69;80.24;100541.16;3562195;40;20085;-45
2021/04/08 01:03:58;;;;;;;10.00;2.50;;;;;;;2.69;81.01;100550.41;3560846;40;20090;-43
2021/04/08 01:06:25;;;;;;;8.75;2.38;;;;;;;2.71;80.32;100547.16;3560933;40;20065;-43
2021/04/08 01:08:51;;;;;;;6.95;1.85;;;;;;;2.77;79.64;100554.19;3560074;40;20084;-43
2021/04/08 01:11:18;;;;;;;6.93;2.88;;;;;;;2.78;79.07;100544.19;3560837;40;20320;-46
2021/04/08 01:13:45;;;;;;;7.13;2.10;;;;;;;2.81;79.07;100546.00;3560307;40;20089;-42
2021/04/08 01:16:19;;;;;;;7.00;2.25;;;;;;;2.89;78.28;100544.75;3560875;40;20085;-43
2021/04/08 01:18:56;;;;;;;5.63;2.08;;;;;;;2.97;77.48;100558.69;3559506;40;20056;-45
2021/04/08 01:21:28;;;;;;;8.27;2.20;;;;;;;2.79;78.58;100561.09;3561016;40;20045;-47
2021/04/08 01:24:23;;;;;;;8.27;2.28;;;;;;;2.86;78.13;100564.81;3559805;40;20300;-45
2021/04/08 01:27:17;;;;;;;6.25;2.03;;;;;;;2.60;79.34;100565.06;3559058;40;20515;-45
2021/04/08 01:30:10;;;;;;;12.60;2.67;;;;;;;2.79;78.67;100577.94;3561771;40;20555;-43
2021/04/08 01:32:45;;;;;;;5.63;2.00;;;;;;;2.98;78.32;100578.13;3562187;40;20041;-44
2021/04/08 01:35:13;;;;;;;8.15;2.22;;;;;;;2.76;79.65;100575.22;3559316;40;20065;-43
2021/04/08 01:37:55;;;;;;;8.65;2.67;;;;;;;2.87;78.63;100584.28;3561754;40;20053;-44
2021/04/08 01:40:24;;;;;;;7.45;2.58;;;;;;;2.87;79.39;100581.75;3560268;40;20343;-42
2021/04/08 01:42:53;;;;;;;7.32;1.95;;;;;;;2.87;79.59;100581.75;3561439;40;20349;-47
2021/04/08 01:45:24;;;;;;;7.72;1.95;;;;;;;2.96;79.31;100584.78;3562101;40;20109;-42
2021/04/08 01:47:54;;;;;;;8.25;2.35;;;;;;;2.96;80.10;100591.50;3561318;40;20341;-43
2021/04/08 01:50:22;;;;;;;5.53;1.63;;;;;;;2.83;79.69;100587.41;3562330;40;20081;-43
2021/04/08 01:52:51;;;;;;;8.45;2.13;;;;;;;2.93;80.22;100588.78;3562636;40;20053;-43
2021/04/08 01:55:22;;;;;;;5.07;2.05;;;;;;;2.90;81.16;100588.63;3562243;40;20344;-46
2021/04/08 01:57:49;;;;;;;9.90;3.00;;;;;;;2.70;82.06;100588.41;3561935;40;20100;-48
2021/04/08 02:00:19;;;;;;;6.22;2.03;;;;;;;2.86;81.96;100591.75;3562159;40;20060;-43
2021/04/08 02:02:49;;;;;;;8.80;2.00;;;;;;;2.87;81.75;100593.53;3560704;40;20053;-47
2021/04/08 02:05:17;;;;;;;8.77;1.98;;;;;;;2.77;82.51;100593.03;3562237;40;20100;-44
2021/04/08 02:07:51;;;;;;;8.18;2.10;;;;;;;2.71;82.54;100600.25;3561414;40;20069;-43
2021/04/08 02:10:18;;;;;;;7.95;2.20;;;;;;;2.75;83.02;100593.72;3562309;40;20307;-45
2021/04/08 02:12:48;;;;;;;7.80;2.55;;;;;;;2.69;83.42;100596.78;3561498;40;20443;-44
2021/04/08 02:15:18;;;;;;;9.80;2.88;;;;;;;2.67;83.10;100593.28;3562060;40;20123;-43
2021/04/08 02:17:49;;;;;;;11.75;2.30;;;;;;;2.59;82.95;100591.09;3561501;40;20085;-43
2021/04/08 02:20:19;;;;;;;4.10;2.05;;;;;;;2.69;82.66;100595.91;3562292;40;20085;-43
2021/04/08 02:22:48;;;;;;;8.98;2.03;;;;;;;2.84;82.55;100608.53;3561604;40;20097;-43
2021/04/08 02:25:16;;;;;;;8.02;2.53;;;;;;;2.65;82.24;100599.91;3562090;40;20119;-43
2021/04/08 02:27:44;;;;;;;7.60;2.70;;;;;;;2.78;81.49;100601.47;3560233;40;20444;-43
2021/04/08 02:30:14;;;;;;;7.72;2.33;;;;;;;2.84;81.53;100608.53;3562477;40;20089;-44
2021/04/08 02:32:41;;;;;;;6.95;2.10;;;;;;;2.74;81.58;100610.53;3559661;40;20369;-44
2021/04/08 02:35:15;;;;;;;4.75;1.80;;;;;;;2.70;81.76;100615.34;3559637;40;20393;-44
2021/04/08 02:37:43;;;;;;;6.50;1.95;;;;;;;2.63;81.96;100625.88;3560686;40;20092;-44
2021/04/08 02:40:12;;;;;;;7.10;2.55;;;;;;;2.80;81.47;100620.13;3562638;40;20494;-44
2021/04/08 02:42:39;;;;;;;10.55;2.40;;;;;;;2.69;82.38;100622.06;3560840;40;20045;-46
2021/04/08 02:45:07;;;;;;;10.70;2.13;;;;;;;2.55;82.21;100626.34;3561886;40;20057;-44
2021/04/08 02:47:34;;;;;;;7.40;2.20;;;;;;;2.72;82.06;100624.72;3561459;40;20053;-47
2021/04/08 02:50:01;;;;;;;9.43;2.35;;;;;;;2.81;81.98;100624.38;3561734;40;20093;-48
2021/04/08 02:52:57;;;;;;;9.40;1.98;;;;;;;2.91;81.73;100633.34;3561803;40;20097;-43
2021/04/08 02:55:34;;;;;;;12.90;3.45;;;;;;;2.67;82.51;100635.38;3560292;40;20078;-43
2021/04/08 02:58:03;;;;;;;12.10;2.80;;;;;;;2.94;81.39;100636.91;3561694;40;20323;-44
2021/04/08 03:00:33;;;;;;;7.57;2.20;;;;;;;2.55;82.71;100636.44;3562150;40;20117;-45
2021/04/08 03:03:05;;;;;;;10.35;2.25;;;;;;;2.78;81.31;100641.94;3561649;40;20054;-45
2021/04/08 03:05:36;;;;;;;10.35;2.40;;;;;;;2.80;81.51;100652.97;3562148;40;20391;-49
2021/04/08 03:08:06;;;;;;;10.85;2.10;;;;;;;2.78;81.17;100647.00;3561553;40;20122;-43
2021/04/08 03:10:33;;;;;;;10.85;2.55;;;;;;;2.93;80.00;100649.50;3561897;40;20138;-46
2021/04/08 03:13:01;;;;;;;7.75;2.15;;;;;;;2.75;80.91;100650.19;3561009;40;20097;-46
2021/04/08 03:15:31;;;;;;;14.48;2.42;;;;;;;2.70;81.17;100658.31;3561888;40;20065;-44
2021/04/08 03:17:59;;;;;;;8.68;2.08;;;;;;;2.81;80.46;100659.78;3565918;40;20053;-47
2021/04/08 03:20:27;;;;;;;9.35;2.65;;;;;;;2.83;79.95;100659.88;3570906;40;20041;-49
2021/04/08 03:22:56;;;;;;;8.18;1.98;;;;;;;2.83;80.12;100677.59;3565461;40;20049;-47
2021/04/08 03:25:23;;;;;;;11.00;2.60;;;;;;;2.75;80.70;100669.56;3562218;40;20104;-43
2021/04/08 03:27:51;;;;;;;10.05;1.95;;;;;;;2.95;79.86;100679.13;3561092;40;20060;-42
2021/04/08 03:30:18;;;;;;;7.55;2.45;;;;;;;2.79;80.01;100674.88;3559020;40;20049;-43
2021/04/08 03:32:45;;;;;;;11.00;2.10;;;;;;;2.77;80.14;100686.56;3560403;40;20407;-48
2021/04/08 03:35:13;;;;;;;9.35;2.28;;;;;;;2.83;80.14;100687.69;3561926;40;20049;-46
2021/04/08 03:37:41;;;;;;;9.45;1.80;;;;;;;2.94;79.63;100694.22;3551490;40;20065;-44
2021/04/08 03:40:09;;;;;;;6.90;1.63;;;;;;;2.78;79.28;100698.44;3556501;40;20112;-44
2021/04/08 03:42:36;;;;;;;7.47;1.40;;;;;;;2.77;79.58;100694.16;3561242;40;20059;-44
2021/04/08 03:45:04;;;;;;;5.30;1.92;;;;;;;2.77;80.03;100701.75;3562499;40;20108;-46
2021/04/08 03:47:31;;;;;;;7.82;2.00;;;;;;;2.87;80.32;100702.25;3561208;40;20076;-43
2021/04/08 03:50:00;;;;;;;8.00;2.20;;;;;;;2.76;80.28;100715.16;3561050;40;20042;-48
2021/04/08 03:52:27;;;;;;;5.70;2.25;;;;;;;2.65;80.80;100701.03;3561361;40;20069;-44
2021/04/08 03:54:55;;;;;;;7.35;2.20;;;;;;;2.70;80.23;100711.41;3560110;40;20087;-47
2021/04/08 03:57:24;;;;;;;11.07;2.08;;;;;;;2.81;80.42;100707.81;3561734;40;20429;-47
2021/04/08 03:59:51;;;;;;;8.65;1.85;;;;;;;2.86;79.96;100714.00;3560913;40;20044;-45
2021/04/08 04:02:24;;;;;;;7.05;1.90;;;;;;;2.77;80.45;100719.44;3561713;40;20080;-44
2021/04/08 04:04:52;;;;;;;6.47;2.22;;;;;;;2.80;80.06;100717.06;3561251;40;20411;-42
2021/04/08 04:07:20;;;;;;;6.72;1.42;;;;;;;2.89;79.32;100718.38;3561665;40;20049;-41
2021/04/08 04:09:47;;;;;;;9.10;1.73;;;;;;;2.84;79.68;100732.44;3560134;40;20041;-46
2021/04/08 04:12:15;;;;;;;8.15;2.38;;;;;;;2.84;81.61;100723.19;3561475;40;20061;-42
2021/04/08 04:14:44;;;;;;;14.25;2.83;;;;;;;2.55;84.83;100735.03;3561050;40;20088;-43
2021/04/08 04:17:28;;;;;;;6.68;2.35;;;;;;;2.62;86.51;100730.31;3558447;40;20138;-41
2021/04/08 04:19:56;;;;;;;6.68;2.45;;;;;;;2.35;87.50;100743.06;3560933;40;20050;-43
2021/04/08 04:22:40;;;;;;;14.60;3.60;;;;;;;2.45;87.79;100750.44;3560672;40;20043;-46
2021/04/08 04:25:11;;;;;;;7.45;2.95;;;;;;;1.90;90.42;100747.13;3558856;40;20076;-44
2021/04/08 04:27:39;;;;;;;13.80;3.90;;;;;;;1.96;91.37;100744.09;3560955;40;20087;-46
2021/04/08 04:30:09;;;;;;;13.82;3.22;;;;;;;1.45;93.52;100740.97;3558726;40;20069;-43
2021/04/08 04:32:36;;;;;;;10.10;3.25;;;;;;;1.79;93.24;100738.88;3561358;40;20124;-42
2021/04/08 04:35:03;;;;;;;11.32;3.50;;;;;;;1.83;93.22;100746.66;3561089;40;20214;-44
2021/04/08 04:37:30;;;;;;;8.18;3.10;;;;;;;1.81;94.04;100751.59;3561336;40;20146;-41
2021/04/08 04:39:57;;;;;;;11.38;3.30;;;;;;;1.74;94.21;100752.88;3560952;40;20056;-46
2021/04/08 04:42:23;;;;;;;6.68;3.65;;;;;;;1.61;93.69;100749.50;3560818;40;20385;-42
2021/04/08 04:44:50;;;;;;;10.77;3.03;;;;;;;1.78;93.16;100747.22;3560944;40;20424;-42
2021/04/08 04:47:17;;;;;;;11.82;3.00;;;;;;;1.83;92.27;100745.00;3561768;40;20627;-43
2021/04/08 04:49:46;;;;;;;18.27;4.13;;;;;;;1.59;94.21;100740.97;3560623;40;20045;-43
2021/04/08 04:52:13;;;;;;;13.07;3.35;;;;;;;1.84;94.15;100745.84;3562464;40;20328;-43
2021/04/08 04:54:41;;;;;;;14.35;3.53;;;;;;;1.68;92.88;100755.03;3561330;40;20050;-43
2021/04/08 04:57:10;;;;;;;13.52;3.63;;;;;;;1.74;93.68;100755.38;3559045;40;20108;-46
2021/04/08 04:59:42;;;;;;;11.80;3.15;;;;;;;1.91;92.44;100758.09;3557648;40;20068;-47
2021/04/08 05:02:12;;;;;;;16.63;3.67;;;;;;;1.56;92.07;100769.38;3559844;40;20080;-43
2021/04/08 05:04:48;;;;;;;11.57;3.60;;;;;;;1.92;92.53;100764.88;3560072;40;20397;-48
2021/04/08 05:07:18;;;;;;;20.88;4.05;;;;;;;1.87;93.16;100772.19;3560545;40;20061;-44
2021/04/08 05:09:48;;;;;;;12.13;3.75;;;;;;;2.04;91.00;100779.13;3559049;40;20592;-44
2021/04/08 05:12:14;;;;;;;15.43;3.55;;;;;;;2.02;92.39;100777.28;3559962;40;20042;-42
2021/04/08 05:14:41;;;;;;;15.93;3.35;;;;;;;2.10;90.35;100798.84;3560527;40;20061;-45
2021/04/08 05:17:08;;;;;;;10.23;2.88;;;;;;;2.02;89.74;100788.25;3560200;40;20140;-47
2021/04/08 05:19:35;;;;;;;12.88;3.10;;;;;;;2.15;89.51;100794.94;3559525;40;20876;-49
2021/04/08 05:22:01;;;;;;;12.77;4.15;;;;;;;2.06;88.83;100796.91;3557618;40;20114;-46
2021/04/08 05:24:30;;;;;;;9.63;2.85;;;;;;;2.17;88.66;100807.66;3559417;40;20153;-46
2021/04/08 05:26:56;;;;;;;13.50;2.92;;;;;;;2.39;88.17;100810.69;3560853;40;20053;-45
2021/04/08 05:29:23;;;;;;;11.82;3.05;;;;;;;2.34;87.40;100811.22;3561201;40;20136;-47
2021/04/08 05:31:50;;;;;;;15.35;2.70;;;;;;;2.27;87.34;100815.91;3561020;40;20069;-45
2021/04/08 05:34:16;;;;;;;10.27;2.95;;;;;;;2.40;87.95;100829.25;3560653;40;20069;-46
2021/04/08 05:36:43;;;;;;;13.20;3.10;;;;;;;2.39;86.61;100813.22;3561071;40;20054;-46
2021/04/08 05:39:10;;;;;;;18.05;3.90;;;;;;;2.42;86.77;100825.19;3560472;40;20097;-42
2021/04/08 05:41:37;;;;;;;13.82;3.53;;;;;;;2.40;86.99;100831.78;3561269;40;20061;-49
2021/04/08 05:44:04;;;;;;;14.50;2.67;;;;;;;2.58;86.32;100837.06;3561380;40;20088;-46
2021/04/08 05:46:30;;;;;;;11.55;2.72;;;;;;;2.58;83.37;100839.59;3560606;40;20056;-45
2021/04/08 05:48:57;;;;;;;11.20;2.78;;;;;;;2.74;83.89;100842.28;3559741;40;20076;-43
2021/04/08 05:51:24;;;;;;;14.82;2.50;;;;;;;2.74;84.40;100844.81;3562654;40;20049;-44
2021/04/08 05:53:50;;;;;;;11.63;2.80;;;;;;;2.71;84.61;100850.53;3560998;40;20069;-43
2021/04/08 05:56:18;;;;;;;13.05;3.13;;;;;;;2.73;83.29;100853.19;3561879;40;20088;-45
2021/04/08 05:58:45;;;;;;;15.05;2.75;;;;;;;2.71;82.19;100865.72;3560974;40;20045;-45
2021/04/08 06:01:12;;;;;;;12.82;3.20;;;;;;;2.72;82.96;100866.56;3561647;40;20085;-44
2021/04/08 06:03:39;;;;;;;8.52;2.47;;;;;;;2.85;82.09;100864.00;3561127;40;20061;-43
2021/04/08 06:06:07;;;;;;;10.05;2.38;;;;;;;3.12;80.46;100867.28;3559667;40;20630;-49
2021/04/08 06:08:34;;;;;;;9.82;3.25;;;;;;;2.94;81.15;100869.59;3560365;40;20084;-44
2021/04/08 06:11:00;;;;;;;11.55;2.65;;;;;;;3.02;81.80;100877.66;3560945;40;20057;-47
2021/04/08 06:13:27;;;;;;;33.13;12.32;;;;;;;3.08;81.10;100890.66;3561559;40;20069;-44
2021/04/08 06:15:54;;;;;;;12.80;3.17;;;;;;;3.20;79.17;100893.03;3560956;40;20057;-48
2021/04/08 06:18:21;;;;;;;13.18;4.07;;;;;;;3.28;79.64;100900.28;3562194;40;20049;-42
2021/04/08 06:20:48;;;;;;;11.27;2.97;;;;;;;3.54;78.78;100901.78;3561766;40;20631;-48
2021/04/08 06:23:15;;;;;;;11.23;2.60;;;;;;;3.52;79.10;100908.44;3564225;40;20454;-47
2021/04/08 06:25:41;;;;;;;11.93;5.38;;;;;;;3.72;78.11;100914.63;3570515;40;20419;-51
2021/04/08 06:28:08;;;;;;;13.80;4.38;;;;;;;3.88;78.01;100912.94;3567303;40;20053;-44
2021/04/08 06:30:35;;;;;;;15.38;3.63;;;;;;;3.85;77.10;100922.91;3563629;40;20069;-45
2021/04/08 06:33:01;;;;;;;9.13;2.88;;;;;;;3.71;77.12;100923.00;3562460;40;21512;-44
2021/04/08 06:35:28;;;;;;;5.68;2.20;;;;;;;3.55;76.77;100923.78;3562759;40;20053;-46
2021/04/08 06:37:54;;;;;;;9.38;3.00;;;;;;;3.66;77.77;100926.06;3560133;40;20125;-50
2021/04/08 06:40:22;;;;;;;14.27;2.45;;;;;;;3.72;77.88;100937.41;3561954;40;20382;-47
2021/04/08 06:42:53;;;;;;;10.10;3.10;;;;;;;3.79;76.93;100936.97;3561083;40;20058;-45
2021/04/08 06:45:27;;;;;;;14.60;3.10;;;;;;;4.12;75.71;100942.19;3562169;40;20061;-48
2021/04/08 06:48:02;;;;;;;11.30;2.65;;;;;;;3.96;74.69;100944.63;3562045;40;20069;-44
2021/04/08 06:50:38;;;;;;;11.07;2.57;;;;;;;3.73;75.86;100956.00;3559833;40;20057;-49
2021/04/08 06:53:06;;;;;;;10.10;2.38;;;;;;;3.62;75.48;100954.53;3561685;40;20344;-47
2021/04/08 06:55:34;;;;;;;9.32;2.92;;;;;;;3.83;76.73;100963.34;3561130;40;20058;-45
2021/04/08 06:58:04;;;;;;;11.45;2.67;;;;;;;3.97;75.20;100967.53;3560529;40;20105;-46
2021/04/08 07:00:33;;;;;;;9.45;2.83;;;;;;;3.81;74.40;100963.25;3562170;40;20061;-42
2021/04/08 07:03:02;;;;;;;9.27;2.45;;;;;;;3.85;75.14;100965.97;3561048;40;20050;-48
2021/04/08 07:05:29;;;;;;;7.45;2.65;;;;;;;3.96;74.77;100973.38;3561730;40;20053;-46
2021/04/08 07:07:55;;;;;;;9.98;3.00;;;;;;;4.13;73.59;100971.81;3560810;40;20079;-43
2021/04/08 07:10:23;;;;;;;7.38;2.30;;;;;;;4.31;72.22;100966.88;3562770;40;20065;-45
2021/04/08 07:12:55;;;;;;;10.55;2.83;;;;;;;4.22;73.49;100981.59;3562082;40;20060;-46
2021/04/08 07:15:24;;;;;;;11.05;3.08;;;;;;;4.31;74.06;100980.44;3562782;40;20057;-44
2021/04/08 07:17:51;;;;;;;11.98;2.58;;;;;;;4.43;73.54;100987.81;3563260;40;20058;-45
2021/04/08 07:20:18;;;;;;;9.88;2.85;;;;;;;4.71;72.20;100994.41;3563685;40;20420;-45
2021/04/08 07:22:44;;;;;;;10.02;2.90;;;;;;;4.68;71.49;100999.31;3564284;40;20069;-44
2021/04/08 07:25:20;;;;;;;9.75;2.58;;;;;;;4.32;72.39;100988.91;3563026;40;20089;-47
2021/04/08 07:27:47;;;;;;;7.72;2.78;;;;;;;4.79;72.98;101004.16;3560854;40;20073;-48
2021/04/08 07:30:18;;;;;;;7.63;2.58;;;;;;;4.59;73.00;100998.03;3562258;40;20065;-45
2021/04/08 07:32:57;;;;;;;9.52;2.53;;;;;;;5.28;69.50;101018.59;3564164;40;20045;-48
2021/04/08 07:35:25;;;;;;;9.57;2.22;;;;;;;5.09;69.82;101009.16;3562891;40;20048;-50
2021/04/08 07:37:56;;;;;;;11.20;2.63;;;;;;;5.08;69.61;101020.06;3563095;40;20073;-49
2021/04/08 07:40:26;;;;;;;7.05;2.67;;;;;;;5.05;69.59;101025.00;3561500;40;20053;-48
2021/04/08 07:42:53;;;;;;;11.40;2.42;;;;;;;4.85;68.53;101026.44;3560271;40;20090;-50
2021/04/08 07:45:26;;;;;;;12.20;4.30;;;;;;;5.35;68.86;101030.81;3561795;40;20058;-46
2021/04/08 07:48:05;;;;;;;15.57;2.53;;;;;;;5.44;69.20;101035.50;3563927;40;20080;-46
2021/04/08 07:50:33;;;;;;;13.82;2.95;;;;;;;5.47;68.07;101045.81;3563596;40;20096;-50
2021/04/08 07:53:01;;;;;;;8.27;2.88;;;;;;;5.45;66.92;101049.94;3564726;40;20057;-45
2021/04/08 07:55:30;;;;;;;6.70;2.38;;;;;;;5.39;68.05;101044.53;3563285;40;20057;-47
2021/04/08 07:57:59;;;;;;;14.98;3.05;;;;;;;5.34;67.74;101060.41;3564065;40;20618;-45
2021/04/08 08:00:42;;;;;;;14.30;3.15;;;;;;;5.26;67.86;101061.66;3563170;40;20422;-46
2021/04/08 08:03:25;;;;;;;11.73;2.60;;;;;;;5.30;68.48;101063.56;3562723;40;20097;-49
2021/04/08 08:05:58;;;;;;;8.88;2.75;;;;;;;5.38;67.45;101061.44;3562147;40;20131;-47
2021/04/08 08:08:36;;;;;;;8.60;3.00;;;;;;;5.26;67.20;101058.25;3562404;40;20064;-49
2021/04/08 08:11:07;;;;;;;19.52;3.90;;;;;;;5.19;67.60;101071.44;3562520;40;20132;-48
2021/04/08 08:13:40;;;;;;;11.18;2.83;;;;;;;5.70;66.89;101072.41;3562483;40;20439;-47
2021/04/08 08:16:07;;;;;;;12.93;3.30;;;;;;;5.51;66.93;101071.47;3562889;40;20052;-44
2021/04/08 08:18:41;;;;;;;11.75;3.50;;;;;;;5.78;64.08;101079.63;3561018;40;20061;-44
2021/04/08 08:21:13;;;;;;;17.75;4.20;;;;;;;6.25;62.08;101085.38;3558015;40;20055;-47
2021/04/08 08:23:55;;;;;;;9.05;2.40;;;;;;;6.07;63.68;101098.06;3560377;40;20072;-44
2021/04/08 08:26:32;;;;;;;8.50;3.03;;;;;;;6.61;64.71;101087.19;3558754;40;20034;-47
2021/04/08 08:29:15;;;;;;;9.93;2.70;;;;;;;6.89;61.43;101097.00;3560977;40;20403;-49
2021/04/08 08:31:57;;;;;;;10.98;2.42;;;;;;;6.74;61.69;101093.69;3561379;40;20064;-46
2021/04/08 08:34:38;;;;;;;14.10;4.07;;;;;;;7.01;60.93;101103.44;3559919;40;20049;-48
2021/04/08 08:37:09;;;;;;;6.32;1.58;;;;;;;6.68;60.57;101108.69;3562448;40;20045;-47
2021/04/08 08:39:40;;;;;;;8.80;2.10;;;;;;;6.80;58.34;101119.47;3562057;40;20102;-46
2021/04/08 08:42:11;;;;;;;7.85;1.92;;;;;;;7.07;62.35;101116.44;3558990;40;20100;-46
2021/04/08 08:44:39;;;;;;;9.52;2.03;;;;;;;7.07;60.93;101126.63;3562957;40;20045;-47
2021/04/08 08:47:15;;;;;;;7.60;2.03;;;;;;;7.26;59.86;101131.78;3561749;40;20041;-50
2021/04/08 08:49:47;;;;;;;8.30;1.95;;;;;;;7.26;59.31;101131.78;3560844;40;20060;-50
2021/04/08 08:52:24;;;;;;;6.82;1.40;;;;;;;6.68;59.21;101126.50;3562109;40;20148;-46
2021/04/08 08:54:51;;;;;;;8.35;1.50;;;;;;;6.93;58.27;101148.03;3550878;40;20665;-47
2021/04/08 08:57:20;;;;;;;8.02;1.98;;;;;;;6.87;58.91;101135.88;3552963;40;20054;-51
2021/04/08 08:59:58;;;;;;;4.38;1.70;;;;;;;7.28;56.51;101145.47;3551365;40;20050;-45
2021/04/08 09:02:27;;;;;;;6.07;1.88;;;;;;;7.66;55.22;101147.19;3551403;40;20080;-45
2021/04/08 09:04:55;;;;;;;12.70;1.98;;;;;;;7.73;56.50;101152.59;3550173;40;20069;-47
2021/04/08 09:07:23;;;;;;;9.02;1.63;;;;;;;7.58;54.46;101150.19;3551186;40;20057;-50
2021/04/08 09:09:55;;;;;;;8.52;1.77;;;;;;;7.60;55.27;101159.69;3551951;40;20165;-49
2021/04/08 09:12:24;;;;;;;7.60;1.58;;;;;;;7.65;55.81;101159.88;3562544;40;20034;-46
2021/04/08 09:14:50;;;;;;;9.07;2.22;;;;;;;7.46;55.23;101159.84;3562582;40;20517;-47
2021/04/08 09:17:39;;;;;;;5.13;1.38;;;;;;;7.96;55.45;101169.78;3563157;40;20058;-46
2021/04/08 09:20:10;;;;;;;5.30;1.40;;;;;;;7.60;54.94;101169.00;3560811;40;20045;-48
2021/04/08 09:22:50;;;;;;;7.80;1.60;;;;;;;7.32;56.31;101172.81;3561512;40;20057;-46
2021/04/08 09:25:19;;;;;;;3.75;1.38;;;;;;;7.90;54.03;101166.94;3562490;40;20096;-48
2021/04/08 09:28:02;;;;;;;7.70;2.13;;;;;;;8.12;53.07;101171.28;3563324;40;20045;-50
2021/04/08 09:31:03;;;;;;;5.88;1.10;;;;;;;7.96;53.11;101171.44;3567421;40;20381;-50
2021/04/08 09:33:42;;;;;;;4.40;1.45;;;;;;;8.04;53.12;101172.63;3564791;40;20697;-44
2021/04/08 09:36:18;;;;;;;6.13;1.60;;;;;;;7.65;54.14;101182.81;3562801;40;20065;-47
2021/04/08 09:38:44;;;;;;;7.28;1.45;;;;;;;7.48;53.85;101184.59;3561016;40;20057;-49
2021/04/08 09:41:11;;;;;;;8.27;1.52;;;;;;;7.24;55.77;101194.50;3561286;40;20073;-44
2021/04/08 09:43:47;;;;;;;7.18;1.90;;;;;;;7.42;54.16;101186.00;3562485;40;20328;-47
2021/04/08 09:46:17;;;;;;;7.97;1.80;;;;;;;7.22;53.78;101180.84;3561021;40;20069;-46
2021/04/08 09:48:50;;;;;;;4.30;1.33;;;;;;;7.77;52.95;101185.94;3564154;40;20407;-44
2021/04/08 09:51:24;;;;;;;3.70;1.08;;;;;;;8.00;50.60;101184.41;3564920;40;20607;-45
2021/04/08 09:53:54;;;;;;;7.07;1.58;;;;;;;8.04;51.09;101187.94;3563369;40;20053;-49
2021/04/08 09:56:43;;;;;;;6.25;1.35;;;;;;;7.98;50.27;101188.53;3563391;40;20068;-44
2021/04/08 09:59:10;;;;;;;4.80;1.65;;;;;;;7.84;50.58;101190.47;3559521;40;20147;-44
2021/04/08 10:01:38;;;;;;;6.78;1.40;;;;;;;7.80;52.30;101191.16;3561921;40;20062;-44
2021/04/08 10:04:14;;;;;;;7.57;1.20;;;;;;;10.58;47.38;101202.97;3562841;40;20038;-47
2021/04/08 10:06:42;;;;;;;5.88;1.70;;;;;;;12.97;41.86;101195.41;3562398;40;20067;-49
2021/04/08 10:09:14;;;;;;;5.40;1.40;;;;;;;14.11;37.56;101204.78;3561850;40;20056;-51
2021/04/08 10:11:43;;;;;;;5.05;1.65;;;;;;;13.74;37.93;101213.47;3561642;40;20105;-47
2021/04/08 10:14:29;;;;;;;6.38;1.80;;;;;;;15.68;33.79;101219.47;3561559;40;20052;-47
2021/04/08 10:17:00;;;;;;;4.00;1.10;;;;;;;15.92;31.30;101218.03;3563144;40;20032;-48
2021/04/08 10:19:36;;;;;;;5.15;1.17;;;;;;;16.41;31.61;101219.47;3562906;40;20076;-44
2021/04/08 10:22:04;;;;;;;7.22;1.25;;;;;;;15.43;32.65;101220.78;3563722;40;20129;-51
2021/04/08 10:24:35;;;;;;;4.72;1.02;;;;;;;13.99;34.65;101215.72;3562288;40;20057;-52
2021/04/08 10:27:11;;;;;;;4.65;1.90;;;;;;;15.44;34.48;101219.97;3562168;40;20038;-47
2021/04/08 10:29:38;;;;;;;20.23;11.63;;;;;;;14.73;34.58;101217.97;3562067;40;20071;-47
2021/04/08 10:32:06;;;;;;;52.65;46.03;;;;;;;13.49;34.02;101212.94;3563860;40;20323;-52
2021/04/08 10:34:40;;;;;;;16.15;9.35;;;;;;;12.46;36.43;101218.97;3560963;40;20463;-45
2021/04/08 10:37:09;;;;;;;77.18;32.53;;;;;;;10.85;37.83;101216.72;3561895;40;20065;-45
2021/04/08 10:39:39;;;;;;;13.13;6.47;;;;;;;9.80;41.14;101218.09;3562534;40;20123;-48
2021/04/08 10:42:11;;;;;;;7.75;2.30;;;;;;;10.75;40.76;101226.63;3562343;40;20041;-49
2021/04/08 10:44:42;;;;;;;5.15;1.20;;;;;;;11.22;39.26;101223.03;3562055;40;20060;-45
2021/04/08 10:47:17;;;;;;;7.95;2.28;;;;;;;12.07;35.72;101214.50;3559894;40;20585;-48
2021/04/08 10:49:49;;;;;;;16.63;5.68;;;;;;;10.24;39.13;101218.84;3561125;40;20509;-48
2021/04/08 10:52:25;;;;;;;6.00;1.52;;;;;;;13.26;35.30;101226.97;3562095;40;20061;-44
2021/04/08 10:54:54;;;;;;;6.63;1.90;;;;;;;14.93;34.67;101225.16;3561262;40;20061;-50
2021/04/08 10:57:23;;;;;;;10.73;4.32;;;;;;;17.22;29.02;101230.53;3561917;40;20104;-45
2021/04/08 10:59:50;;;;;;;5.95;2.80;;;;;;;15.01;30.70;101227.03;3562670;40;20061;-47
2021/04/08 11:02:34;;;;;;;6.53;1.15;;;;;;;14.34;30.52;101225.84;3563264;40;20085;-47
2021/04/08 11:05:21;;;;;;;5.63;1.77;;;;;;;14.73;30.25;101232.56;3563135;40;20139;-50
2021/04/08 11:07:51;;;;;;;;;;;;;;;14.43;31.82;101238.91;3562922;40;20049;-48
2021/04/08 11:10:23;;;;;;;4.53;1.30;;;;;;;15.69;30.15;101235.81;3563929;40;20554;-49
2021/04/08 11:12:52;;;;;;;7.47;1.73;;;;;;;16.77;29.16;101236.19;3552188;40;20046;-47
2021/04/08 11:15:24;;;;;;;5.65;0.98;;;;;;;16.32;28.95;101246.94;3552959;40;20050;-48
2021/04/08 11:17:56;;;;;;;2.40;1.10;;;;;;;15.07;30.90;101246.94;3556303;40;20060;-47
2021/04/08 11:20:34;;;;;;;3.75;1.05;;;;;;;17.43;29.13;101241.91;3550093;40;20064;-49
2021/04/08 11:23:01;;;;;;;5.53;1.48;;;;;;;16.78;28.50;101245.72;3551642;40;20806;-49
2021/04/08 11:25:30;;;;;;;4.88;1.00;;;;;;;14.78;31.09;101251.56;3552006;40;20078;-49
2021/04/08 11:27:59;;;;;;;2.55;1.05;;;;;;;13.46;32.23;101242.88;3552310;40;20054;-45
2021/04/08 11:30:30;;;;;;;4.03;1.17;;;;;;;13.05;33.85;101250.47;3552374;40;20056;-46
2021/04/08 11:32:58;;;;;;;3.40;1.10;;;;;;;12.94;35.65;101251.88;3553044;40;20848;-47
2021/04/08 11:35:38;;;;;;;3.85;1.20;;;;;;;13.56;34.04;101256.84;3552856;40;20053;-49
2021/04/08 11:38:08;;;;;;;3.17;0.82;;;;;;;16.35;30.77;101259.88;3552336;40;20057;-50
2021/04/08 11:40:44;;;;;;;2.30;0.90;;;;;;;17.16;28.59;101258.09;3552273;40;20074;-48
2021/04/08 11:43:22;;;;;;;4.28;1.20;;;;;;;14.70;32.15;101253.16;3550380;40;20138;-51